North Haverhill, New Hampshire
Current Conditions -  °F | °C
As of 12:55 PM on Monday 24 Nov 2014 (Local Time) from K1P1 Reporting Station
Haze Haze  
Wind Chill: 48°   Ceiling: 1100
Heat Index: 48°   Visibility: 2mi
Dew Point: 48°   Wind: 0mph
Humidity: 100%   Direction: NA
Pressure: 29.57"   Gusts: NA
Location:  44.09°N, 72.03°W
Report Text: K1P1 241755Z AUTO 00000KT 2SM BR OVC011 09/09 A2957 RMK AO2 VIS 1V5 60047 T00900090 10091 20026
Loading
Personal Weather Stations






























Interactive Weather Map New forecast layout! Learn more

10-Day Weather Forecast

Advertisements
Track Severe Weather on mobile